createdAt,value
2022-12-18T00:00:08.928Z,48.77
2022-12-18T00:02:41.830Z,50.27
2022-12-18T00:05:10.233Z,44.97
2022-12-18T00:07:38.944Z,53.40
2022-12-18T00:10:08.235Z,47.43
2022-12-18T00:12:36.329Z,55.47
2022-12-18T00:15:04.913Z,51.27
2022-12-18T00:17:34.483Z,52.53
2022-12-18T00:20:02.508Z,50.87
2022-12-18T00:22:30.720Z,47.70
2022-12-18T00:24:58.901Z,47.00
2022-12-18T00:27:27.060Z,94.17
2022-12-18T00:29:55.096Z,56.27
2022-12-18T00:32:23.176Z,49.97
2022-12-18T00:34:52.691Z,55.13
2022-12-18T00:37:20.732Z,58.87
2022-12-18T00:39:52.665Z,43.57
2022-12-18T00:42:38.867Z,45.33
2022-12-18T00:45:12.702Z,46.20
2022-12-18T00:47:41.792Z,42.80
2022-12-18T00:50:12.358Z,50.80
2022-12-18T00:52:41.991Z,35.47
2022-12-18T00:55:10.342Z,41.93
2022-12-18T00:57:38.658Z,42.73
2022-12-18T01:00:11.037Z,45.30
2022-12-18T01:02:39.222Z,42.07
2022-12-18T01:05:11.738Z,47.33
2022-12-18T01:07:40.187Z,37.10
2022-12-18T01:10:10.036Z,43.23
2022-12-18T01:12:38.108Z,44.17
2022-12-18T01:15:08.566Z,41.57
2022-12-18T01:17:36.643Z,37.43
2022-12-18T01:20:06.180Z,42.13
2022-12-18T01:22:35.967Z,41.07
2022-12-18T01:25:05.410Z,45.43
2022-12-18T01:27:33.655Z,37.60
2022-12-18T01:30:01.856Z,40.87
2022-12-18T01:32:31.899Z,36.13
2022-12-18T01:34:59.946Z,41.17
2022-12-18T01:37:29.048Z,40.87
2022-12-18T01:39:58.718Z,39.33
2022-12-18T01:42:26.828Z,45.37
2022-12-18T01:45:06.380Z,36.47
2022-12-18T01:47:38.857Z,49.73
2022-12-18T01:50:10.885Z,37.40
2022-12-18T01:52:44.361Z,40.80
2022-12-18T01:55:16.488Z,37.97
2022-12-18T01:57:44.812Z,37.63
2022-12-18T02:00:17.557Z,38.27
2022-12-18T02:02:47.488Z,30.80
2022-12-18T02:05:19.689Z,35.87
2022-12-18T02:08:02.016Z,44.80
2022-12-18T02:10:41.340Z,32.83
2022-12-18T02:13:16.407Z,29.17
2022-12-18T02:15:51.820Z,33.63
2022-12-18T02:18:23.669Z,31.73
2022-12-18T02:20:56.258Z,33.33
2022-12-18T02:23:40.281Z,35.50
2022-12-18T02:26:17.646Z,30.03
2022-12-18T02:28:49.563Z,28.47
2022-12-18T02:31:23.094Z,34.90
2022-12-18T02:33:53.277Z,35.40
2022-12-18T02:36:24.153Z,32.80
2022-12-18T02:38:54.484Z,30.67
2022-12-18T02:41:28.483Z,33.40
2022-12-18T02:43:59.368Z,34.77
2022-12-18T02:46:35.046Z,41.20
2022-12-18T02:49:17.377Z,32.80
2022-12-18T02:51:54.650Z,32.23
2022-12-18T02:54:34.599Z,35.10
2022-12-18T02:57:14.329Z,32.83
2022-12-18T02:59:51.425Z,29.40
2022-12-18T03:02:25.171Z,34.43
2022-12-18T03:05:00.306Z,27.87
2022-12-18T03:07:35.501Z,28.97
2022-12-18T03:10:05.845Z,34.53
2022-12-18T03:12:40.413Z,37.60
2022-12-18T03:15:17.804Z,29.40
2022-12-18T03:17:54.571Z,30.00
2022-12-18T03:20:31.303Z,35.90
2022-12-18T03:23:05.703Z,34.13
2022-12-18T03:25:35.505Z,28.97
2022-12-18T03:28:09.529Z,29.47
2022-12-18T03:30:42.548Z,35.80
2022-12-18T03:33:18.784Z,33.07
2022-12-18T03:35:48.682Z,28.30
2022-12-18T03:38:19.223Z,35.90
2022-12-18T03:40:59.069Z,35.00
2022-12-18T03:43:39.295Z,34.73
2022-12-18T03:46:14.819Z,27.93
2022-12-18T03:48:54.799Z,33.40
2022-12-18T03:51:28.909Z,30.63
2022-12-18T03:54:01.403Z,26.33
2022-12-18T03:56:38.644Z,24.27
2022-12-18T03:59:12.037Z,30.20
2022-12-18T04:01:44.946Z,28.03
2022-12-18T04:04:16.593Z,35.13
2022-12-18T04:06:47.437Z,35.50
2022-12-18T04:09:16.592Z,30.43
2022-12-18T04:11:48.839Z,33.50
2022-12-18T04:14:19.641Z,27.77
2022-12-18T04:16:52.021Z,28.43
2022-12-18T04:19:24.890Z,30.47
2022-12-18T04:21:54.949Z,28.77
2022-12-18T04:24:23.067Z,24.17
2022-12-18T04:27:04.915Z,30.63
2022-12-18T04:29:42.078Z,29.97
2022-12-18T04:32:10.421Z,26.67
2022-12-18T04:34:39.606Z,33.23
2022-12-18T04:37:08.195Z,31.63
2022-12-18T04:39:36.746Z,36.17
2022-12-18T04:42:10.491Z,32.10
2022-12-18T04:44:38.682Z,33.73
2022-12-18T04:47:08.539Z,28.50
2022-12-18T04:49:36.643Z,31.73
2022-12-18T04:52:04.789Z,26.60
2022-12-18T04:54:35.846Z,31.53
2022-12-18T04:57:04.227Z,30.33
2022-12-18T04:59:32.424Z,32.43
2022-12-18T05:02:00.657Z,36.73
2022-12-18T05:04:30.076Z,30.63
2022-12-18T05:06:58.319Z,28.07
2022-12-18T05:09:26.486Z,36.70
2022-12-18T05:11:54.712Z,34.63
2022-12-18T05:14:22.930Z,31.93
2022-12-18T05:16:51.263Z,29.57
2022-12-18T05:19:19.567Z,27.73
2022-12-18T05:21:49.014Z,31.20
2022-12-18T05:24:17.442Z,32.60
2022-12-18T05:26:45.463Z,37.10
2022-12-18T05:29:13.602Z,40.97
2022-12-18T05:31:42.389Z,36.83
2022-12-18T05:34:11.795Z,35.13
2022-12-18T05:36:40.856Z,38.10
2022-12-18T05:39:10.656Z,42.17
2022-12-18T05:41:38.696Z,47.40
2022-12-18T05:44:06.951Z,45.13
2022-12-18T05:46:35.059Z,46.70
2022-12-18T05:49:03.376Z,42.57
2022-12-18T05:51:32.483Z,43.63
2022-12-18T05:54:00.583Z,43.47
2022-12-18T05:56:30.036Z,45.67
2022-12-18T05:58:58.066Z,44.97
2022-12-18T06:01:28.296Z,55.23
2022-12-18T06:03:57.022Z,57.50
2022-12-18T06:06:27.205Z,56.50
2022-12-18T06:08:56.231Z,60.63
2022-12-18T06:11:26.641Z,65.83
2022-12-18T06:13:59.164Z,72.33
2022-12-18T06:16:28.269Z,56.63
2022-12-18T06:18:58.355Z,61.67
2022-12-18T06:21:26.580Z,64.20
2022-12-18T06:23:54.706Z,58.43
2022-12-18T06:26:27.777Z,61.80
2022-12-18T06:28:57.850Z,67.97
2022-12-18T06:31:27.366Z,58.90
2022-12-18T06:33:55.512Z,55.07
2022-12-18T06:36:23.863Z,65.27
2022-12-18T06:38:52.138Z,60.90
2022-12-18T06:41:22.267Z,63.67
2022-12-18T06:43:50.419Z,65.17
2022-12-18T06:46:19.955Z,60.77
2022-12-18T06:48:50.864Z,61.93
2022-12-18T06:51:23.411Z,66.13
2022-12-18T06:53:51.891Z,76.07
2022-12-18T06:56:20.155Z,82.87
2022-12-18T06:58:48.311Z,72.70
2022-12-18T07:01:16.525Z,70.40
2022-12-18T07:03:46.244Z,63.53
2022-12-18T07:06:19.670Z,66.37
2022-12-18T07:08:48.317Z,65.93
2022-12-18T07:11:17.291Z,58.63
2022-12-18T07:13:46.239Z,61.27
2022-12-18T07:16:21.138Z,73.10
2022-12-18T07:18:53.852Z,63.73
2022-12-18T07:21:22.881Z,61.47
2022-12-18T07:23:50.924Z,63.23
2022-12-18T07:26:20.827Z,68.07
2022-12-18T07:28:49.698Z,62.10
2022-12-18T07:31:21.638Z,57.80
2022-12-18T07:33:50.581Z,62.30
2022-12-18T07:36:20.954Z,67.87
2022-12-18T07:38:50.055Z,59.53
2022-12-18T07:41:20.698Z,70.60
2022-12-18T07:43:49.435Z,63.40
2022-12-18T07:46:18.620Z,68.17
2022-12-18T07:48:49.772Z,70.80
2022-12-18T07:51:21.050Z,67.10
2022-12-18T07:53:52.103Z,62.27
2022-12-18T07:56:27.672Z,65.93
2022-12-18T07:58:57.258Z,75.50
2022-12-18T08:01:25.976Z,61.90
2022-12-18T08:03:54.335Z,68.60
2022-12-18T08:06:24.751Z,69.50
2022-12-18T08:08:54.590Z,62.57
2022-12-18T08:11:23.655Z,56.27
2022-12-18T08:13:51.733Z,61.37
2022-12-18T08:16:20.715Z,66.13
2022-12-18T08:18:49.770Z,54.37
2022-12-18T08:21:22.029Z,55.37
2022-12-18T08:23:52.550Z,62.07
2022-12-18T08:26:21.312Z,63.97
2022-12-18T08:28:50.388Z,52.73
2022-12-18T08:31:19.827Z,60.60
2022-12-18T08:33:51.558Z,70.20
2022-12-18T08:36:20.235Z,63.70
2022-12-18T08:38:48.643Z,65.70
2022-12-18T08:41:19.356Z,61.47
2022-12-18T08:44:05.285Z,57.93
2022-12-18T08:46:38.803Z,53.77
2022-12-18T08:49:08.196Z,60.73
2022-12-18T08:51:36.854Z,60.87
2022-12-18T08:54:06.398Z,63.17
2022-12-18T08:56:36.113Z,55.27
2022-12-18T08:59:05.403Z,54.70
2022-12-18T09:01:33.775Z,52.17
2022-12-18T09:04:03.562Z,55.27
2022-12-18T09:06:32.852Z,56.23
2022-12-18T09:09:00.865Z,52.17
2022-12-18T09:11:30.610Z,49.43
2022-12-18T09:14:01.782Z,54.13
2022-12-18T09:16:32.601Z,52.60
2022-12-18T09:19:01.274Z,52.90
2022-12-18T09:21:31.265Z,63.20
2022-12-18T09:24:01.116Z,61.07
2022-12-18T09:26:29.138Z,54.00
2022-12-18T09:28:57.202Z,57.43
2022-12-18T09:31:26.848Z,59.97
2022-12-18T09:33:56.491Z,52.83
2022-12-18T09:36:24.553Z,52.07
2022-12-18T09:38:52.592Z,57.27
2022-12-18T09:41:41.146Z,60.70
2022-12-18T09:44:20.449Z,57.97
2022-12-18T09:46:57.927Z,63.97
2022-12-18T09:49:30.943Z,63.47
2022-12-18T09:52:03.930Z,58.57
2022-12-18T09:54:35.638Z,56.83
2022-12-18T09:57:03.885Z,58.43
2022-12-18T09:59:36.285Z,51.83
2022-12-18T10:02:16.901Z,58.07
2022-12-18T10:04:45.494Z,52.60
2022-12-18T10:07:20.360Z,52.37
2022-12-18T10:09:55.826Z,43.43
2022-12-18T10:12:29.729Z,59.47
2022-12-18T10:15:03.931Z,53.83
2022-12-18T10:17:41.710Z,54.37
2022-12-18T10:20:15.766Z,49.63
2022-12-18T10:22:54.110Z,45.97
2022-12-18T10:25:27.309Z,53.10
2022-12-18T10:27:59.496Z,55.90
2022-12-18T10:30:28.210Z,56.23
2022-12-18T10:33:02.824Z,56.10
2022-12-18T10:35:31.976Z,55.67
2022-12-18T10:38:07.285Z,59.37
2022-12-18T10:40:50.524Z,53.93
2022-12-18T10:43:23.946Z,52.73
2022-12-18T10:46:06.358Z,53.60
2022-12-18T10:48:38.128Z,59.23
2022-12-18T10:51:13.116Z,53.13
2022-12-18T10:53:44.661Z,51.23
2022-12-18T10:56:12.990Z,56.93
2022-12-18T10:58:41.913Z,57.50
2022-12-18T11:01:13.058Z,49.13
2022-12-18T11:03:45.784Z,54.37
2022-12-18T11:06:15.861Z,56.13
2022-12-18T11:08:46.465Z,56.73
2022-12-18T11:11:22.842Z,48.30
2022-12-18T11:14:03.110Z,55.17
2022-12-18T11:16:35.685Z,65.13
2022-12-18T11:19:32.467Z,46.90
2022-12-18T11:22:01.520Z,57.77
2022-12-18T11:27:50.639Z,53.97
2022-12-18T11:30:24.617Z,52.87
2022-12-18T11:32:55.255Z,53.10
2022-12-18T11:35:35.231Z,60.33
2022-12-18T11:38:12.803Z,55.30
2022-12-18T11:40:44.133Z,56.97
2022-12-18T11:43:16.938Z,67.23
2022-12-18T11:45:53.088Z,66.60
2022-12-18T11:48:25.841Z,55.33
2022-12-18T11:50:57.363Z,59.50
2022-12-18T11:53:27.185Z,56.27
2022-12-18T11:56:05.992Z,51.13
2022-12-18T11:58:49.160Z,63.80
2022-12-18T12:01:40.361Z,58.03
2022-12-18T12:04:32.410Z,61.57
2022-12-18T12:07:13.244Z,58.77
2022-12-18T12:09:51.977Z,62.17
2022-12-18T12:12:48.613Z,65.83
2022-12-18T12:15:27.188Z,67.00
2022-12-18T12:18:06.866Z,65.17
2022-12-18T12:20:48.102Z,67.10
2022-12-18T12:23:27.701Z,67.67
2022-12-18T12:26:02.446Z,65.93
2022-12-18T12:28:52.704Z,74.53
2022-12-18T12:31:33.679Z,73.07
2022-12-18T12:34:08.744Z,61.90
2022-12-18T12:36:48.725Z,64.67
2022-12-18T12:39:23.648Z,67.90
2022-12-18T12:42:09.145Z,71.17
2022-12-18T12:44:41.371Z,65.60
2022-12-18T12:47:15.442Z,66.07
2022-12-18T12:49:50.427Z,68.13
2022-12-18T12:52:32.945Z,65.47
2022-12-18T12:55:11.543Z,72.60
2022-12-18T12:57:47.360Z,65.30
2022-12-18T13:00:16.680Z,65.00
2022-12-18T13:02:50.543Z,64.67
2022-12-18T13:05:25.811Z,71.67
2022-12-18T13:08:00.057Z,71.83
2022-12-18T13:10:37.778Z,70.07
2022-12-18T13:13:09.235Z,70.83
2022-12-18T13:15:46.822Z,71.63
2022-12-18T13:18:21.402Z,67.37
2022-12-18T13:20:55.402Z,80.43
2022-12-18T13:23:34.079Z,75.73
2022-12-18T13:26:35.521Z,84.07
2022-12-18T13:29:05.265Z,61.57
2022-12-18T13:32:10.038Z,63.07
2022-12-18T13:34:38.531Z,82.43
2022-12-18T13:37:55.736Z,70.27
2022-12-18T13:40:57.934Z,66.97
2022-12-18T13:43:43.908Z,77.43
2022-12-18T13:46:24.693Z,71.30
2022-12-18T13:48:56.935Z,67.43
2022-12-18T13:51:26.228Z,71.40
2022-12-18T13:53:59.970Z,80.63
2022-12-18T13:56:30.339Z,75.87
2022-12-18T13:59:18.548Z,76.53
2022-12-18T14:01:49.589Z,78.03
2022-12-18T14:04:33.042Z,62.20
2022-12-18T14:07:05.783Z,73.00
2022-12-18T14:09:38.172Z,73.73
2022-12-18T14:12:32.591Z,72.10
2022-12-18T14:15:03.553Z,69.47
2022-12-18T14:17:33.624Z,69.33
2022-12-18T14:20:02.832Z,75.20
2022-12-18T14:22:32.693Z,83.57
2022-12-18T14:25:17.149Z,81.70
2022-12-18T14:27:46.812Z,83.17
2022-12-18T14:30:33.984Z,74.67
2022-12-18T14:33:05.210Z,70.23
2022-12-18T14:35:33.687Z,74.43
2022-12-18T14:38:30.646Z,68.43
2022-12-18T14:41:04.089Z,73.47
2022-12-18T14:43:35.520Z,70.80
2022-12-18T14:46:07.232Z,72.73
2022-12-18T14:48:40.949Z,73.73
2022-12-18T14:51:18.061Z,72.63
2022-12-18T14:53:54.145Z,74.90
2022-12-18T14:56:24.704Z,71.67
2022-12-18T14:58:55.936Z,74.20
2022-12-18T15:01:28.876Z,78.67
2022-12-18T15:03:58.787Z,76.23
2022-12-18T15:06:33.068Z,77.10
2022-12-18T15:09:02.062Z,73.67
2022-12-18T15:11:37.417Z,73.40
2022-12-18T15:14:35.657Z,75.57
2022-12-18T15:17:08.373Z,74.23
2022-12-18T15:19:41.031Z,68.17
2022-12-18T15:22:21.281Z,71.93
2022-12-18T15:24:50.813Z,71.67
2022-12-18T15:27:30.267Z,64.17
2022-12-18T15:30:28.601Z,54.00
2022-12-18T15:33:27.562Z,63.07
2022-12-18T15:35:59.345Z,60.60
2022-12-18T15:38:27.925Z,63.47
2022-12-18T15:40:56.582Z,72.33
2022-12-18T15:43:38.438Z,75.13
2022-12-18T15:46:08.456Z,59.10
2022-12-18T15:48:41.333Z,69.60
2022-12-18T15:51:18.124Z,78.00
2022-12-18T15:53:47.121Z,65.80
2022-12-18T15:56:33.522Z,69.70
2022-12-18T15:59:02.334Z,55.33
2022-12-18T16:01:36.097Z,68.53
2022-12-18T16:04:12.682Z,75.13
2022-12-18T16:07:12.619Z,64.27
2022-12-18T16:09:31.483Z,76.73
2022-12-18T16:12:02.693Z,115.20
2022-12-18T16:14:32.647Z,78.87
2022-12-18T16:17:02.492Z,63.37
2022-12-18T16:19:34.584Z,74.17
2022-12-18T16:22:07.614Z,72.07
2022-12-18T16:24:37.270Z,70.63
2022-12-18T16:27:05.394Z,78.20
2022-12-18T16:29:33.971Z,66.60
2022-12-18T16:32:02.686Z,79.97
2022-12-18T16:34:35.810Z,68.13
2022-12-18T16:37:06.711Z,70.50
2022-12-18T16:39:35.665Z,78.70
2022-12-18T16:42:07.426Z,78.57
2022-12-18T16:44:36.511Z,76.17
2022-12-18T16:47:05.653Z,78.90
2022-12-18T16:49:37.586Z,73.60
2022-12-18T16:52:06.073Z,85.27
2022-12-18T16:54:35.215Z,79.77
2022-12-18T16:57:03.378Z,82.67
2022-12-18T16:59:31.415Z,79.83
2022-12-18T17:02:00.132Z,67.13
2022-12-18T17:04:28.291Z,63.60
2022-12-18T17:06:57.865Z,82.30
2022-12-18T17:09:26.197Z,74.67
2022-12-18T17:11:57.356Z,58.60
2022-12-18T17:14:26.414Z,70.57
2022-12-18T17:17:19.645Z,76.47
2022-12-18T17:19:43.536Z,73.93
2022-12-18T17:22:13.031Z,66.93
2022-12-18T17:24:41.045Z,72.87
2022-12-18T17:27:09.549Z,77.60
2022-12-18T17:29:42.484Z,72.57
2022-12-18T17:32:14.917Z,71.07
2022-12-18T17:34:42.915Z,74.13
2022-12-18T17:37:12.293Z,92.80
2022-12-18T17:39:40.887Z,93.17
2022-12-18T17:42:10.623Z,76.43
2022-12-18T17:44:43.478Z,65.77
2022-12-18T17:47:12.212Z,60.40
2022-12-18T17:49:40.604Z,64.77
2022-12-18T17:52:08.535Z,64.73
2022-12-18T17:54:39.760Z,76.47
2022-12-18T17:57:07.988Z,75.80
2022-12-18T17:59:36.068Z,73.43
2022-12-18T18:02:04.308Z,73.10
2022-12-18T18:04:32.948Z,68.97
2022-12-18T18:07:01.037Z,76.27
2022-12-18T18:09:29.344Z,75.63
2022-12-18T18:12:16.232Z,77.87
2022-12-18T18:14:44.513Z,80.17
2022-12-18T18:17:12.984Z,70.03
2022-12-18T18:19:42.095Z,65.60
2022-12-18T18:22:11.746Z,65.47
2022-12-18T18:24:40.119Z,70.50
2022-12-18T18:27:12.739Z,71.97
2022-12-18T18:29:41.101Z,60.00
2022-12-18T18:32:09.268Z,72.13
2022-12-18T18:34:37.837Z,73.43
2022-12-18T18:37:06.455Z,59.43
2022-12-18T18:39:34.621Z,60.20
2022-12-18T18:42:03.363Z,56.33
2022-12-18T18:44:33.531Z,73.20
2022-12-18T18:47:01.596Z,64.90
2022-12-18T18:49:31.875Z,61.30
2022-12-18T18:52:00.336Z,58.03
2022-12-18T18:54:28.491Z,55.83
2022-12-18T18:57:19.433Z,58.67
2022-12-18T18:59:47.603Z,58.23
2022-12-18T19:02:16.708Z,60.03
2022-12-18T19:04:46.715Z,58.93
2022-12-18T19:07:29.994Z,60.33
2022-12-18T19:10:05.082Z,55.90
2022-12-18T19:12:51.914Z,59.63
2022-12-18T19:15:21.597Z,75.30
2022-12-18T19:17:49.795Z,84.20
2022-12-18T19:20:18.350Z,67.50
2022-12-18T19:22:49.039Z,71.00
2022-12-18T19:25:29.732Z,69.17
2022-12-18T19:28:15.112Z,73.30
2022-12-18T19:30:57.302Z,68.07
2022-12-18T19:33:42.266Z,58.10
2022-12-18T19:36:12.965Z,59.23
2022-12-18T19:38:44.825Z,63.57
2022-12-18T19:41:14.706Z,61.63
2022-12-18T19:43:43.303Z,65.30
2022-12-18T19:46:15.451Z,79.27
2022-12-18T19:48:45.101Z,78.37
2022-12-18T19:51:16.907Z,73.37
2022-12-18T19:53:45.002Z,74.87
2022-12-18T19:56:14.852Z,68.57
2022-12-18T19:58:44.092Z,56.17
2022-12-18T20:01:16.472Z,76.43
2022-12-18T20:03:51.635Z,76.73
2022-12-18T20:06:25.331Z,65.87
2022-12-18T20:08:55.873Z,71.40
2022-12-18T20:11:29.587Z,63.53
2022-12-18T20:13:57.983Z,61.23
2022-12-18T20:16:30.846Z,62.93
2022-12-18T20:18:59.884Z,60.20
2022-12-18T20:21:28.343Z,52.50
2022-12-18T20:23:56.850Z,58.57
2022-12-18T20:26:25.344Z,57.60
2022-12-18T20:28:55.153Z,65.47
2022-12-18T20:31:23.459Z,60.17
2022-12-18T20:33:54.463Z,60.57
2022-12-18T20:36:24.659Z,52.80
2022-12-18T20:38:57.190Z,51.00
2022-12-18T20:41:27.724Z,55.77
2022-12-18T20:44:06.275Z,58.97
2022-12-18T20:46:39.131Z,52.40
2022-12-18T20:49:08.520Z,52.80
2022-12-18T20:51:37.194Z,55.30
2022-12-18T20:54:09.121Z,52.80
2022-12-18T20:56:39.736Z,50.67
2022-12-18T20:59:07.959Z,61.90
2022-12-18T21:01:36.241Z,47.83
2022-12-18T21:04:05.997Z,52.17
2022-12-18T21:06:35.414Z,46.63
2022-12-18T21:09:03.621Z,40.53
2022-12-18T21:11:50.710Z,46.07
2022-12-18T21:14:21.218Z,47.53
2022-12-18T21:16:51.797Z,46.77
2022-12-18T21:19:21.305Z,50.33
2022-12-18T21:21:51.543Z,49.93
2022-12-18T21:24:20.077Z,51.57
2022-12-18T21:26:50.077Z,51.93
2022-12-18T21:29:20.553Z,42.70
2022-12-18T21:31:49.185Z,52.03
2022-12-18T21:34:18.553Z,46.80
2022-12-18T21:36:46.844Z,52.37
2022-12-18T21:39:17.633Z,58.53
2022-12-18T21:42:03.230Z,53.03
2022-12-18T21:44:40.171Z,44.87
2022-12-18T21:47:16.879Z,56.63
2022-12-18T21:49:51.793Z,52.93
2022-12-18T21:52:20.333Z,52.50
2022-12-18T21:54:53.914Z,52.53
2022-12-18T21:57:22.348Z,51.83
2022-12-18T21:59:50.563Z,51.13
2022-12-18T22:02:21.162Z,48.47
2022-12-18T22:04:49.692Z,50.33
2022-12-18T22:07:19.919Z,54.33
2022-12-18T22:09:48.414Z,61.43
2022-12-18T22:12:35.328Z,48.80
2022-12-18T22:15:05.641Z,52.63
2022-12-18T22:17:33.912Z,53.37
2022-12-18T22:20:01.935Z,50.50
2022-12-18T22:22:30.776Z,54.70
2022-12-18T22:24:58.928Z,49.30
2022-12-18T22:27:28.374Z,50.50
2022-12-18T22:30:04.166Z,50.90
2022-12-18T22:32:32.865Z,53.10
2022-12-18T22:35:06.255Z,46.10
2022-12-18T22:37:37.007Z,48.17
2022-12-18T22:40:07.406Z,49.50
2022-12-18T22:42:37.101Z,52.30
2022-12-18T22:45:05.863Z,46.47
2022-12-18T22:47:34.376Z,49.57
2022-12-18T22:50:02.556Z,47.67
2022-12-18T22:52:30.696Z,42.37
2022-12-18T22:54:58.731Z,44.10
2022-12-18T22:57:27.405Z,40.23
2022-12-18T22:59:56.849Z,48.93
2022-12-18T23:02:25.031Z,43.50
2022-12-18T23:04:53.154Z,38.87
2022-12-18T23:07:21.509Z,38.47
2022-12-18T23:09:58.926Z,36.33
2022-12-18T23:12:29.547Z,47.57
2022-12-18T23:14:59.316Z,37.10
2022-12-18T23:17:27.356Z,40.87
2022-12-18T23:19:55.316Z,46.50
2022-12-18T23:22:23.445Z,47.33
2022-12-18T23:24:51.605Z,49.37
2022-12-18T23:27:19.713Z,48.23
2022-12-18T23:29:47.765Z,47.27
2022-12-18T23:32:18.159Z,43.40
2022-12-18T23:34:46.158Z,40.03
2022-12-18T23:37:24.931Z,40.47
2022-12-18T23:40:02.245Z,38.97
2022-12-18T23:42:30.334Z,49.50
2022-12-18T23:44:58.369Z,45.30
2022-12-18T23:47:29.348Z,42.33
2022-12-18T23:49:57.359Z,48.53
2022-12-18T23:52:26.111Z,40.53
2022-12-18T23:54:57.129Z,51.20
2022-12-18T23:57:25.267Z,40.50
2022-12-18T23:59:54.955Z,43.00
